Time;durP1;ratioP1;P1;durP2;ratioP2;P2;SDS_P1;SDS_P2;PMS_P1;PMS_P2;Temp;Humidity;BMP_temperature;BMP_pressure;BME280_temperature;BME280_humidity;BME280_pressure;Samples;Min_cycle;Max_cycle;Signal;HPM_P1;HPM_P2
2021/06/21 00:01:35;;;;;;;7.53;5.20;;;;;;;19.37;100.00;99785.00;6192415;22;20011;-76
2021/06/21 00:04:21;;;;;;;9.68;5.47;;;;;;;19.01;100.00;99780.50;6192908;22;20044;-77
2021/06/21 00:06:58;;;;;;;9.45;4.88;;;;;;;19.15;100.00;99776.22;6219319;22;20016;-77
2021/06/21 00:09:37;;;;;;;7.38;4.85;;;;;;;19.28;100.00;99790.75;6192497;22;20028;-76
2021/06/21 00:12:11;;;;;;;7.88;5.00;;;;;;;19.28;100.00;99788.19;6219132;22;20057;-76
2021/06/21 00:14:45;;;;;;;9.95;5.35;;;;;;;18.96;100.00;99795.47;6218937;22;20004;-77
2021/06/21 00:17:21;;;;;;;7.53;5.35;;;;;;;19.29;100.00;99791.59;6219219;22;20048;-77
2021/06/21 00:19:51;;;;;;;6.90;5.40;;;;;;;18.78;100.00;99788.91;6192544;22;20001;-76
2021/06/21 00:22:40;;;;;;;5.75;5.03;;;;;;;18.93;100.00;99785.38;6218902;22;20028;-76
2021/06/21 00:25:33;;;;;;;5.30;4.80;;;;;;;18.75;100.00;99789.13;6192166;22;20049;-76
2021/06/21 00:28:05;;;;;;;7.03;4.75;;;;;;;18.86;100.00;99784.09;6218928;22;20382;-76
2021/06/21 00:30:44;;;;;;;9.02;4.82;;;;;;;18.79;100.00;99787.19;6220142;22;20067;-76
2021/06/21 00:33:13;;;;;;;5.97;5.32;;;;;;;19.29;100.00;99782.13;6218590;22;20028;-75
2021/06/21 00:35:44;;;;;;;8.20;4.80;;;;;;;18.58;100.00;99789.38;6192289;22;20022;-75
2021/06/21 00:38:11;;;;;;;6.35;4.68;;;;;;;18.87;100.00;99775.47;6192112;22;20364;-76
2021/06/21 00:41:02;;;;;;;5.47;4.70;;;;;;;18.72;100.00;99779.00;6218686;22;20471;-76
2021/06/21 00:43:40;;;;;;;7.40;5.07;;;;;;;19.00;100.00;99775.47;6191792;23;20009;-76
2021/06/21 00:46:14;;;;;;;6.30;5.13;;;;;;;18.86;100.00;99784.09;6193523;22;20061;-76
2021/06/21 00:48:45;;;;;;;9.90;5.47;;;;;;;18.89;100.00;99778.75;6220353;22;20016;-76
2021/06/21 00:51:14;;;;;;;7.72;5.30;;;;;;;19.02;100.00;99771.03;6193575;22;20072;-76
2021/06/21 00:53:43;;;;;;;10.40;5.43;;;;;;;18.40;100.00;99772.47;6193270;23;20008;-75
2021/06/21 00:56:11;;;;;;;6.32;5.60;;;;;;;18.66;100.00;99776.03;6220019;22;20011;-75
2021/06/21 00:58:37;;;;;;;10.82;5.22;;;;;;;18.24;100.00;99784.69;6220152;22;20355;-76
2021/06/21 01:01:07;;;;;;;9.50;5.53;;;;;;;18.73;100.00;99775.53;6219913;23;20015;-75
2021/06/21 01:03:37;;;;;;;11.20;5.28;;;;;;;18.95;100.00;99768.06;6220065;22;20012;-75
2021/06/21 01:06:03;;;;;;;11.57;5.50;;;;;;;18.64;100.00;99773.53;6214598;22;20013;-75
2021/06/21 01:08:37;;;;;;;9.73;5.80;;;;;;;18.47;100.00;99775.53;6193494;22;20011;-75
2021/06/21 01:11:49;;;;;;;9.68;5.78;;;;;;;18.88;100.00;99769.38;6220076;22;20016;-76
2021/06/21 01:14:53;;;;;;;8.73;5.63;;;;;;;18.58;100.00;99779.06;6219966;23;20053;-76
2021/06/21 01:18:09;;;;;;;7.55;5.88;;;;;;;18.70;100.00;99770.56;6219843;23;20021;-76
2021/06/21 01:21:25;;;;;;;11.48;6.10;;;;;;;18.51;100.00;99770.09;6219941;23;20013;-76
2021/06/21 01:24:08;;;;;;;8.55;6.03;;;;;;;18.64;100.00;99763.22;6219890;23;20015;-76
2021/06/21 01:27:17;;;;;;;12.63;6.47;;;;;;;18.52;100.00;99760.63;6219574;22;20008;-75
2021/06/21 01:30:05;;;;;;;8.93;6.22;;;;;;;18.51;100.00;99762.38;6148054;23;20044;-76
2021/06/21 01:32:45;;;;;;;11.57;5.82;;;;;;;18.58;100.00;99763.63;6193408;22;20092;-76
2021/06/21 01:35:29;;;;;;;12.50;6.55;;;;;;;18.32;100.00;99761.03;6193155;22;20020;-76
2021/06/21 01:37:58;;;;;;;8.25;6.00;;;;;;;18.52;100.00;99770.94;6220077;22;20008;-76
2021/06/21 01:40:52;;;;;;;8.73;5.88;;;;;;;18.33;100.00;99772.97;6219886;22;20016;-76
2021/06/21 01:43:32;;;;;;;10.52;6.15;;;;;;;18.66;100.00;99774.25;6192518;22;20061;-74
2021/06/21 01:46:04;;;;;;;9.70;6.25;;;;;;;18.69;100.00;99781.81;6219788;22;20052;-75
2021/06/21 01:48:33;;;;;;;11.80;6.00;;;;;;;18.64;100.00;99781.25;6219969;22;20009;-74
2021/06/21 01:51:01;;;;;;;7.78;5.90;;;;;;;18.78;100.00;99775.22;6219572;22;20019;-74
2021/06/21 01:53:38;;;;;;;9.40;6.65;;;;;;;18.45;100.00;99775.63;6219092;22;20041;-74
2021/06/21 01:56:21;;;;;;;11.50;6.25;;;;;;;18.40;100.00;99769.91;6219455;22;20009;-75
2021/06/21 01:59:01;;;;;;;13.82;6.70;;;;;;;18.50;100.00;99776.16;6219733;22;20008;-74
2021/06/21 02:01:34;;;;;;;9.02;5.78;;;;;;;18.43;100.00;99780.06;6219469;22;20363;-75
2021/06/21 02:04:06;;;;;;;10.65;6.43;;;;;;;18.68;100.00;99774.16;6192860;22;20008;-75
2021/06/21 02:06:34;;;;;;;9.93;6.50;;;;;;;18.63;100.00;99771.06;6219051;22;20386;-75
2021/06/21 02:09:21;;;;;;;7.22;6.00;;;;;;;18.57;100.00;99776.59;6192647;22;20032;-76
2021/06/21 02:12:06;;;;;;;9.07;6.00;;;;;;;18.88;100.00;99769.38;6219961;22;20395;-77
2021/06/21 02:14:35;;;;;;;8.23;5.40;;;;;;;18.58;100.00;99773.91;6220151;22;20009;-76
2021/06/21 02:17:03;;;;;;;10.90;6.05;;;;;;;18.69;100.00;99776.66;6219792;22;20009;-75
2021/06/21 02:19:35;;;;;;;11.95;6.38;;;;;;;18.26;100.00;99784.59;6220298;22;20208;-75
2021/06/21 02:22:05;;;;;;;10.25;5.88;;;;;;;17.87;100.00;99770.69;6219328;22;20012;-75
2021/06/21 02:24:43;;;;;;;12.95;6.32;;;;;;;17.84;100.00;99782.91;6219450;22;20053;-75
2021/06/21 02:27:23;;;;;;;10.73;6.72;;;;;;;17.86;100.00;99778.50;6219561;22;20087;-76
2021/06/21 02:29:50;;;;;;;12.50;6.55;;;;;;;17.70;100.00;99782.91;6193030;22;20039;-75
2021/06/21 02:32:27;;;;;;;11.27;6.25;;;;;;;17.47;100.00;99788.56;6193195;22;20037;-75
2021/06/21 02:35:37;;;;;;;17.42;7.25;;;;;;;17.29;100.00;99788.72;6219895;22;20009;-76
2021/06/21 02:38:32;;;;;;;12.18;7.55;;;;;;;17.33;100.00;99790.19;6219798;23;20004;-75
2021/06/21 02:41:27;;;;;;;13.80;7.80;;;;;;;17.53;100.00;99783.09;6219748;22;20044;-76
2021/06/21 02:43:57;;;;;;;13.60;8.10;;;;;;;17.27;100.00;99782.84;6193552;23;20344;-75
2021/06/21 02:46:30;;;;;;;15.05;8.30;;;;;;;17.05;100.00;99771.34;6219420;22;20009;-75
2021/06/21 02:49:14;;;;;;;13.57;7.95;;;;;;;17.11;100.00;99769.22;6192780;22;20025;-76
2021/06/21 02:55:11;;;;;;;13.15;8.00;;;;;;;17.41;100.00;99773.50;6219991;23;20004;-75
2021/06/21 02:57:44;;;;;;;13.30;7.55;;;;;;;17.35;100.00;99772.13;6192827;22;20080;-76
2021/06/21 03:00:22;;;;;;;15.13;7.93;;;;;;;17.49;100.00;99779.06;6221258;22;20013;-74
2021/06/21 03:02:58;;;;;;;13.15;7.88;;;;;;;17.70;100.00;99781.19;6219234;22;20383;-74
2021/06/21 03:05:27;;;;;;;15.85;8.23;;;;;;;17.42;100.00;99781.13;6219416;22;20039;-75
2021/06/21 03:07:54;;;;;;;12.32;8.07;;;;;;;17.53;100.00;99770.25;6192374;22;20026;-77
2021/06/21 03:10:20;;;;;;;14.65;8.43;;;;;;;17.48;100.00;99777.34;6193442;22;20016;-76
2021/06/21 03:13:03;;;;;;;13.55;8.55;;;;;;;17.76;100.00;99772.25;6219101;22;20016;-76
2021/06/21 03:15:38;;;;;;;12.70;7.88;;;;;;;17.92;100.00;99778.13;6219572;22;20009;-76
2021/06/21 03:18:20;;;;;;;11.57;8.60;;;;;;;18.42;100.00;99773.22;6192693;22;20012;-76
2021/06/21 03:20:56;;;;;;;13.40;7.93;;;;;;;18.18;100.00;99780.72;6219652;22;20057;-76
2021/06/21 03:23:31;;;;;;;11.35;7.93;;;;;;;18.24;100.00;99787.25;6192443;22;20036;-75
2021/06/21 03:26:01;;;;;;;9.18;7.40;;;;;;;18.48;100.00;99798.59;6193036;22;20386;-77
2021/06/21 03:29:11;;;;;;;11.60;8.35;;;;;;;18.70;100.00;99787.75;6220189;22;20004;-77
2021/06/21 03:31:42;;;;;;;11.55;7.68;;;;;;;18.68;100.00;99789.59;6220394;23;20040;-78
2021/06/21 03:34:12;;;;;;;10.52;7.95;;;;;;;19.10;100.00;99781.66;6193357;22;20012;-77
2021/06/21 03:37:19;;;;;;;10.02;8.45;;;;;;;19.08;100.00;99782.69;6193130;22;20025;-77
2021/06/21 03:39:47;;;;;;;9.57;7.50;;;;;;;19.08;100.00;99785.25;6219446;23;20009;-76
2021/06/21 03:42:14;;;;;;;11.27;7.95;;;;;;;19.20;100.00;99789.63;6192369;22;20033;-76
2021/06/21 03:44:50;;;;;;;11.45;7.65;;;;;;;19.10;100.00;99788.56;6192674;22;20044;-76
2021/06/21 03:47:21;;;;;;;12.75;7.75;;;;;;;19.23;100.00;99790.25;6192707;22;20111;-76
2021/06/21 03:49:48;;;;;;;9.27;7.97;;;;;;;19.01;100.00;99787.44;6192821;22;20008;-77
2021/06/21 03:52:23;;;;;;;12.02;7.20;;;;;;;19.31;100.00;99782.84;6218951;23;20094;-80
2021/06/21 03:54:49;;;;;;;10.93;7.40;;;;;;;18.84;100.00;99780.81;6218720;22;20012;-72
2021/06/21 03:57:14;;;;;;;16.17;8.68;;;;;;;18.86;100.00;99789.25;6218706;23;20372;-74
2021/06/21 03:59:40;;;;;;;9.70;7.88;;;;;;;19.02;100.00;99791.66;6216908;22;20028;-73
2021/06/21 04:02:08;;;;;;;13.68;8.02;;;;;;;19.17;100.00;99787.25;6218712;22;20031;-73
2021/06/21 04:04:35;;;;;;;11.50;7.75;;;;;;;20.04;100.00;99790.72;6218114;22;20010;-76
2021/06/21 04:07:01;;;;;;;11.70;7.53;;;;;;;19.95;100.00;99789.59;6185492;22;20020;-74
2021/06/21 04:09:27;;;;;;;12.13;7.30;;;;;;;19.59;100.00;99784.41;6186678;22;20009;-74
2021/06/21 04:11:59;;;;;;;8.85;6.53;;;;;;;19.84;100.00;99792.13;6188004;23;20384;-74
2021/06/21 04:14:25;;;;;;;9.80;6.72;;;;;;;20.16;100.00;99779.56;6186210;23;20113;-74
2021/06/21 04:16:52;;;;;;;8.30;6.55;;;;;;;20.35;100.00;99782.50;6188581;23;20029;-74
2021/06/21 04:19:25;;;;;;;8.30;6.45;;;;;;;20.33;100.00;99785.19;6185976;23;20016;-75
2021/06/21 04:21:51;;;;;;;10.30;6.75;;;;;;;20.37;100.00;99784.03;6188848;23;20105;-73
2021/06/21 04:24:18;;;;;;;19.77;14.38;;;;;;;20.27;100.00;99777.88;6188265;22;20024;-75
2021/06/21 04:26:47;;;;;;;19.05;11.95;;;;;;;20.46;100.00;99770.47;6187867;22;20035;-73
2021/06/21 04:29:12;;;;;;;9.48;7.38;;;;;;;20.22;100.00;99774.00;6187062;23;20015;-74
2021/06/21 04:31:38;;;;;;;10.85;7.15;;;;;;;20.40;100.00;99770.09;6189414;23;20013;-72
2021/06/21 04:34:04;;;;;;;8.40;6.78;;;;;;;20.58;100.00;99769.59;6189095;23;20005;-73
2021/06/21 04:36:29;;;;;;;10.43;7.35;;;;;;;20.55;100.00;99774.16;6186743;22;20052;-72
2021/06/21 04:38:55;;;;;;;8.90;7.43;;;;;;;20.70;100.00;99776.44;6188826;23;20005;-70
2021/06/21 04:41:20;;;;;;;13.25;6.70;;;;;;;20.52;100.00;99776.97;6188694;23;20013;-70
2021/06/21 04:43:56;;;;;;;10.95;7.00;;;;;;;21.11;100.00;99770.03;6189579;23;20291;-73
2021/06/21 04:46:25;;;;;;;8.77;7.28;;;;;;;20.92;100.00;99774.91;6187669;23;20005;-72
2021/06/21 04:48:51;;;;;;;8.00;6.60;;;;;;;21.61;99.63;99764.41;6188403;22;20005;-73
2021/06/21 04:51:20;;;;;;;8.00;6.28;;;;;;;21.31;98.99;99769.38;6189760;23;20013;-74
2021/06/21 04:54:01;;;;;;;8.07;6.28;;;;;;;21.42;97.41;99766.78;6189730;23;20378;-73
2021/06/21 04:56:47;;;;;;;7.57;6.10;;;;;;;21.19;98.78;99762.53;6188383;22;20037;-75
2021/06/21 04:59:27;;;;;;;8.40;5.90;;;;;;;21.33;100.00;99767.50;6190416;23;20029;-73
2021/06/21 05:02:04;;;;;;;9.10;6.32;;;;;;;21.60;99.50;99767.97;6188247;23;20031;-73
2021/06/21 05:04:37;;;;;;;8.77;6.40;;;;;;;21.42;99.27;99769.38;6189547;23;20013;-72
2021/06/21 05:07:03;;;;;;;9.35;7.10;;;;;;;21.57;98.80;99763.00;6187481;22;20023;-73
2021/06/21 05:09:32;;;;;;;9.48;7.55;;;;;;;21.63;99.41;99765.13;6189561;23;20013;-73
2021/06/21 05:12:11;;;;;;;12.00;7.18;;;;;;;21.66;99.39;99766.66;6189466;23;20291;-74
2021/06/21 05:14:44;;;;;;;8.60;7.07;;;;;;;22.18;96.93;99766.88;6189562;23;20020;-72
2021/06/21 05:17:17;;;;;;;11.48;8.10;;;;;;;21.80;98.60;99767.25;6188164;22;20267;-74
2021/06/21 05:19:48;;;;;;;8.23;7.10;;;;;;;21.98;98.86;99771.03;6189548;23;20362;-76
2021/06/21 05:22:15;;;;;;;9.63;7.43;;;;;;;22.27;97.84;99772.16;6188453;22;20025;-73
2021/06/21 05:24:48;;;;;;;7.30;6.32;;;;;;;22.35;96.29;99774.13;6187713;22;20025;-73
2021/06/21 05:27:15;;;;;;;6.82;5.82;;;;;;;22.88;94.04;99764.63;6190008;23;20013;-75
2021/06/21 05:29:47;;;;;;;7.03;5.00;;;;;;;23.09;91.15;99770.66;6190279;23;20089;-73
2021/06/21 05:32:18;;;;;;;6.30;4.95;;;;;;;23.11;91.53;99776.56;6189811;23;20028;-72
2021/06/21 05:34:50;;;;;;;6.85;5.00;;;;;;;23.37;88.93;99780.44;6189327;23;20029;-73
2021/06/21 05:37:17;;;;;;;6.80;5.53;;;;;;;23.54;89.33;99781.59;6188038;23;20013;-72
2021/06/21 05:39:46;;;;;;;6.45;5.10;;;;;;;23.90;88.08;99787.06;6190109;23;20006;-73
2021/06/21 05:42:12;;;;;;;6.68;4.80;;;;;;;23.60;86.28;99791.44;6189594;23;20105;-73
2021/06/21 05:44:41;;;;;;;5.88;4.43;;;;;;;23.53;87.19;99792.94;6187627;22;20084;-73
2021/06/21 05:47:24;;;;;;;5.80;4.80;;;;;;;24.48;83.26;99793.22;6188118;22;20033;-73
2021/06/21 05:50:03;;;;;;;5.22;4.60;;;;;;;23.95;84.39;99797.06;6189665;23;20318;-73
2021/06/21 05:52:30;;;;;;;6.72;4.40;;;;;;;23.95;85.76;99795.28;6189350;23;20012;-73
2021/06/21 05:54:59;;;;;;;5.15;4.18;;;;;;;24.02;84.20;99788.66;6187792;23;20024;-73
2021/06/21 05:57:34;;;;;;;5.88;3.97;;;;;;;24.33;81.93;99788.56;6187649;23;20012;-73
2021/06/21 06:00:09;;;;;;;4.68;4.13;;;;;;;23.98;84.76;99787.25;6190343;23;20020;-73
2021/06/21 06:02:35;;;;;;;4.78;4.32;;;;;;;24.06;84.24;99782.25;6187455;22;20115;-73
2021/06/21 06:05:06;;;;;;;5.07;4.35;;;;;;;24.40;83.15;99790.50;6187872;22;20021;-73
2021/06/21 06:07:33;;;;;;;5.45;3.90;;;;;;;24.41;81.88;99796.50;6206275;23;20019;-73
2021/06/21 06:10:03;;;;;;;6.47;3.72;;;;;;;24.27;81.57;99794.28;6193171;22;20104;-74
2021/06/21 06:12:47;;;;;;;5.20;3.85;;;;;;;24.31;83.84;99788.69;6192935;22;20233;-74
2021/06/21 06:15:28;;;;;;;4.90;4.30;;;;;;;24.32;83.30;99795.56;6219637;22;20012;-73
2021/06/21 06:17:55;;;;;;;5.43;4.20;;;;;;;23.83;84.13;99791.13;6219495;23;20024;-74
2021/06/21 06:20:25;;;;;;;4.30;3.90;;;;;;;24.54;81.62;99797.09;6192727;23;20020;-74
2021/06/21 06:22:50;;;;;;;4.45;4.05;;;;;;;24.86;81.24;99792.44;6219811;22;20009;-74
2021/06/21 06:25:16;;;;;;;5.97;4.30;;;;;;;24.45;82.05;99796.09;6219233;22;20113;-74
2021/06/21 06:27:42;;;;;;;5.13;3.97;;;;;;;24.57;80.67;99802.00;6219782;22;20084;-73
2021/06/21 06:30:11;;;;;;;5.47;3.55;;;;;;;25.03;79.65;99804.78;6192912;22;20051;-74
2021/06/21 06:32:39;;;;;;;4.53;4.03;;;;;;;24.46;80.25;99805.56;6219250;22;20028;-73
2021/06/21 06:35:06;;;;;;;5.00;4.03;;;;;;;24.82;79.76;99802.31;6219461;22;20024;-74
2021/06/21 06:37:33;;;;;;;6.63;4.75;;;;;;;24.52;80.17;99799.00;6219885;22;20001;-73
2021/06/21 06:39:58;;;;;;;6.07;4.80;;;;;;;25.09;79.52;99788.59;6218951;23;20359;-73
2021/06/21 06:42:24;;;;;;;6.50;4.68;;;;;;;24.85;80.94;99789.03;6218902;22;20045;-74
2021/06/21 06:44:49;;;;;;;5.15;4.40;;;;;;;25.22;78.27;99786.50;6219427;22;20132;-73
2021/06/21 06:47:15;;;;;;;4.82;4.38;;;;;;;25.30;77.12;99786.63;6219013;23;20367;-73
2021/06/21 06:49:40;;;;;;;5.82;4.43;;;;;;;25.09;78.10;99787.78;6219409;23;20019;-73
2021/06/21 06:52:06;;;;;;;7.10;4.97;;;;;;;25.43;76.25;99792.38;6219012;23;20019;-74
2021/06/21 06:57:02;;;;;;;8.45;4.57;;;;;;;24.98;77.21;99790.53;6219551;22;19997;-74
2021/06/21 06:59:31;;;;;;;8.43;5.05;;;;;;;25.64;75.82;99793.00;6193083;22;20016;-74
2021/06/21 07:02:00;;;;;;;4.72;4.22;;;;;;;25.09;76.35;99793.81;6219499;23;20008;-74
2021/06/21 07:04:26;;;;;;;6.57;4.60;;;;;;;25.12;78.38;99793.50;6219128;22;20104;-73
2021/06/21 07:06:52;;;;;;;5.50;4.90;;;;;;;25.90;76.03;99797.53;6218589;22;20021;-74
2021/06/21 07:09:18;;;;;;;6.45;4.60;;;;;;;25.69;75.49;99790.78;6218708;23;20027;-74
2021/06/21 07:11:45;;;;;;;5.75;5.00;;;;;;;25.57;76.97;99791.91;6192269;22;20012;-74
2021/06/21 07:14:11;;;;;;;8.40;4.65;;;;;;;26.41;73.39;99795.22;6192025;23;20005;-73
2021/06/21 07:16:36;;;;;;;6.85;4.53;;;;;;;26.37;75.39;99801.69;6192289;23;20062;-74
2021/06/21 07:19:02;;;;;;;6.45;5.00;;;;;;;26.26;73.49;99799.31;6219041;22;20012;-74
2021/06/21 07:21:28;;;;;;;6.63;4.45;;;;;;;26.26;74.43;99801.91;6219433;22;20396;-73
2021/06/21 07:23:54;;;;;;;6.07;4.60;;;;;;;26.33;72.87;99802.94;6218787;23;20073;-74
2021/06/21 07:26:20;;;;;;;6.28;4.60;;;;;;;25.64;74.36;99798.22;6218982;22;20019;-74
2021/06/21 07:28:46;;;;;;;6.20;4.43;;;;;;;27.17;70.87;99801.63;6192599;23;20014;-74
2021/06/21 07:31:12;;;;;;;5.05;4.43;;;;;;;26.75;70.27;99793.63;6218790;22;20060;-74
2021/06/21 07:33:38;;;;;;;4.30;3.75;;;;;;;26.62;68.77;99806.19;6219060;22;20012;-74
2021/06/21 07:36:05;;;;;;;4.70;3.80;;;;;;;26.80;67.34;99798.41;6218787;23;20008;-75
2021/06/21 07:38:31;;;;;;;6.45;4.30;;;;;;;26.89;71.26;99797.47;6219385;22;20110;-74
2021/06/21 07:40:57;;;;;;;7.03;4.63;;;;;;;26.36;72.88;99800.06;6192083;22;20024;-74
2021/06/21 07:43:22;;;;;;;8.05;4.75;;;;;;;27.68;69.21;99793.78;6192725;22;20008;-74
2021/06/21 07:45:48;;;;;;;4.65;4.25;;;;;;;26.86;70.14;99789.97;6218869;23;20101;-75
2021/06/21 07:48:13;;;;;;;4.43;4.00;;;;;;;27.56;68.03;99799.41;6192241;22;20000;-75
2021/06/21 07:50:39;;;;;;;4.85;4.30;;;;;;;27.38;67.70;99795.09;6218815;23;20012;-74
2021/06/21 07:53:06;;;;;;;4.45;3.97;;;;;;;27.68;68.99;99793.78;6192024;22;20360;-74
2021/06/21 07:55:32;;;;;;;6.10;4.22;;;;;;;27.71;68.16;99798.69;6192559;22;20024;-75
2021/06/21 07:57:58;;;;;;;5.07;4.15;;;;;;;26.56;70.74;99798.97;6192516;22;20008;-75
2021/06/21 08:00:24;;;;;;;7.57;4.50;;;;;;;25.99;72.92;99802.72;6220223;22;20020;-74
2021/06/21 08:02:54;;;;;;;7.82;5.55;;;;;;;26.87;71.15;99797.63;6218935;22;20028;-75
2021/06/21 08:05:22;;;;;;;5.50;4.53;;;;;;;27.57;68.13;99788.84;6218874;22;20013;-75
2021/06/21 08:07:48;;;;;;;7.60;4.68;;;;;;;28.14;65.69;99795.97;6191787;22;20052;-75
2021/06/21 08:10:14;;;;;;;5.45;4.70;;;;;;;27.97;63.78;99801.31;6192290;23;20113;-75
2021/06/21 08:12:41;;;;;;;8.55;4.60;;;;;;;28.51;62.58;99800.75;6218714;22;20020;-74
2021/06/21 08:15:10;;;;;;;6.28;4.78;;;;;;;27.88;64.57;99797.78;6191442;22;20495;-73
2021/06/21 08:17:37;;;;;;;5.07;4.20;;;;;;;27.48;67.75;99802.00;6192236;22;20096;-74
2021/06/21 08:20:06;;;;;;;7.22;4.53;;;;;;;26.39;68.53;99800.59;6192971;22;20410;-73
2021/06/21 08:22:31;;;;;;;5.97;4.20;;;;;;;27.37;66.21;99795.25;6219181;22;20008;-74
2021/06/21 08:24:57;;;;;;;4.78;4.30;;;;;;;27.63;65.00;99803.06;6218634;22;20019;-75
2021/06/21 08:27:22;;;;;;;4.80;4.22;;;;;;;27.90;63.97;99808.91;6218575;23;20097;-74
2021/06/21 08:29:48;;;;;;;4.68;4.10;;;;;;;28.35;62.39;99800.72;6192194;22;20378;-74
2021/06/21 08:32:13;;;;;;;4.43;4.03;;;;;;;27.28;64.68;99802.19;6218627;22;20024;-74
2021/06/21 08:34:39;;;;;;;7.82;3.90;;;;;;;28.62;62.00;99804.91;6218267;22;20252;-73
2021/06/21 08:37:05;;;;;;;5.55;4.40;;;;;;;28.88;59.71;99811.63;6192084;23;20281;-74
2021/06/21 08:39:31;;;;;;;4.70;4.18;;;;;;;28.95;59.44;99809.16;6218289;23;20031;-74
2021/06/21 08:41:58;;;;;;;4.80;4.25;;;;;;;29.50;58.60;99809.28;6191902;22;20020;-75
2021/06/21 08:44:23;;;;;;;5.88;3.90;;;;;;;28.62;60.36;99812.75;6191874;22;20019;-74
2021/06/21 08:46:51;;;;;;;4.38;4.00;;;;;;;27.92;62.69;99812.19;6191809;22;20016;-74
2021/06/21 08:49:20;;;;;;;5.55;3.85;;;;;;;26.77;65.27;99817.78;6218147;22;20008;-74
2021/06/21 08:51:48;;;;;;;4.55;3.90;;;;;;;26.69;68.51;99835.09;6218357;22;20008;-74
2021/06/21 08:54:14;;;;;;;6.80;4.95;;;;;;;26.76;71.11;99829.16;6191680;22;20012;-74
2021/06/21 08:56:39;;;;;;;7.20;4.47;;;;;;;25.50;75.07;99823.88;6218292;22;20016;-74
2021/06/21 08:59:06;;;;;;;5.88;4.40;;;;;;;25.76;76.03;99819.69;6218829;22;20008;-73
2021/06/21 09:01:40;;;;;;;5.32;4.82;;;;;;;25.64;76.11;99815.63;6191499;22;20064;-74
2021/06/21 09:04:09;;;;;;;6.68;5.13;;;;;;;26.43;72.83;99830.63;6218293;22;20085;-74
2021/06/21 09:06:37;;;;;;;5.05;4.47;;;;;;;25.89;75.11;99833.19;6219464;22;20019;-73
2021/06/21 09:09:03;;;;;;;6.10;5.47;;;;;;;25.56;78.80;99829.34;6219626;22;20379;-72
2021/06/21 09:11:50;;;;;;;7.30;4.45;;;;;;;25.29;77.65;99829.25;6219453;22;20004;-73
2021/06/21 09:14:25;;;;;;;5.95;4.72;;;;;;;26.89;71.69;99826.19;6192713;22;20036;-73
2021/06/21 09:16:51;;;;;;;7.57;4.50;;;;;;;26.63;73.01;99826.09;6193281;22;20035;-73
2021/06/21 09:19:21;;;;;;;9.00;4.88;;;;;;;27.32;69.25;99816.56;6219246;22;20304;-73
2021/06/21 09:21:46;;;;;;;5.68;4.90;;;;;;;26.77;70.82;99828.22;6219675;22;20040;-73
2021/06/21 09:24:23;;;;;;;8.55;5.20;;;;;;;26.15;71.24;99825.56;6193054;22;20374;-73
2021/06/21 09:26:58;;;;;;;8.13;5.00;;;;;;;25.53;73.31;99821.81;6192785;22;20097;-73
2021/06/21 09:29:36;;;;;;;6.40;5.20;;;;;;;25.74;74.20;99824.22;6220856;22;20016;-73
2021/06/21 09:32:03;;;;;;;7.97;5.10;;;;;;;25.36;76.28;99826.91;6192966;22;20015;-73
2021/06/21 09:34:28;;;;;;;6.05;5.45;;;;;;;25.47;76.98;99821.56;6219239;22;20008;-71
2021/06/21 09:37:04;;;;;;;5.85;4.70;;;;;;;25.22;76.99;99829.94;6192704;23;20011;-72
2021/06/21 09:39:33;;;;;;;5.95;5.20;;;;;;;25.05;77.61;99828.88;6193220;22;20032;-70
2021/06/21 09:42:12;;;;;;;6.35;5.07;;;;;;;25.01;77.43;99830.13;6219817;22;20004;-72
2021/06/21 09:44:38;;;;;;;6.10;5.05;;;;;;;25.47;76.24;99830.19;6219580;22;20008;-70
2021/06/21 09:47:10;;;;;;;7.82;5.78;;;;;;;25.92;75.68;99840.75;6219004;23;20015;-71
2021/06/21 09:49:37;;;;;;;9.10;5.15;;;;;;;25.77;74.13;99840.38;6192080;22;20104;-71
2021/06/21 09:52:02;;;;;;;5.43;4.88;;;;;;;25.89;74.14;99848.03;6219196;22;20776;-71
2021/06/21 09:54:33;;;;;;;11.82;6.85;;;;;;;25.14;83.73;99848.84;6218870;23;20013;-70
2021/06/21 09:57:12;;;;;;;16.02;8.30;;;;;;;25.03;85.15;99843.81;6218897;23;20078;-71
2021/06/21 09:59:47;;;;;;;11.38;7.28;;;;;;;24.62;84.72;99842.22;6219812;23;20027;-70
2021/06/21 10:02:21;;;;;;;10.15;6.07;;;;;;;24.57;85.29;99843.59;6192529;22;20060;-70
2021/06/21 10:04:48;;;;;;;6.35;5.20;;;;;;;24.23;87.37;99843.13;6218938;23;20104;-71
2021/06/21 10:07:35;;;;;;;7.60;5.40;;;;;;;24.44;88.04;99843.03;6219448;22;20024;-70
2021/06/21 10:10:08;;;;;;;10.13;5.82;;;;;;;24.19;91.92;99840.91;6219017;22;20045;-70
2021/06/21 10:12:35;;;;;;;9.45;6.72;;;;;;;24.46;93.18;99843.72;6219300;23;20292;-71
2021/06/21 10:15:00;;;;;;;7.90;6.55;;;;;;;24.64;91.77;99836.94;6218917;23;20354;-71
2021/06/21 10:17:26;;;;;;;7.53;5.80;;;;;;;24.67;88.94;99834.88;6192231;23;20040;-70
2021/06/21 10:19:53;;;;;;;8.10;5.93;;;;;;;24.79;88.18;99830.38;6219221;22;20028;-70
2021/06/21 10:22:21;;;;;;;8.75;6.50;;;;;;;24.70;88.19;99831.19;6218713;22;20024;-70
2021/06/21 10:24:50;;;;;;;8.07;6.15;;;;;;;24.86;86.66;99828.88;6219027;22;20032;-70
2021/06/21 10:27:18;;;;;;;12.45;7.78;;;;;;;24.88;83.76;99837.34;6219206;22;20044;-70
2021/06/21 10:29:44;;;;;;;8.23;7.22;;;;;;;24.92;84.34;99833.53;6192678;22;20228;-70
2021/06/21 10:32:10;;;;;;;8.45;7.45;;;;;;;26.31;80.73;99833.56;6192258;22;20027;-70
2021/06/21 10:34:36;;;;;;;8.85;7.20;;;;;;;26.44;77.04;99837.47;6219001;22;20353;-71
2021/06/21 10:37:01;;;;;;;8.57;7.68;;;;;;;26.99;77.30;99840.81;6218745;22;20020;-71
2021/06/21 10:39:32;;;;;;;8.15;7.35;;;;;;;27.33;75.06;99833.94;6218738;22;20005;-70
2021/06/21 10:42:07;;;;;;;10.75;7.07;;;;;;;27.18;74.22;99834.56;6191855;22;20008;-70
2021/06/21 10:44:58;;;;;;;8.63;7.13;;;;;;;26.85;75.42;99840.50;6218528;23;20279;-70
2021/06/21 10:47:31;;;;;;;7.70;7.10;;;;;;;27.41;75.16;99822.72;6218472;22;20015;-70
2021/06/21 10:50:15;;;;;;;8.00;7.30;;;;;;;27.39;76.46;99820.22;6218699;22;20019;-71
2021/06/21 10:52:54;;;;;;;7.43;6.60;;;;;;;27.35;70.90;99824.16;6191698;22;20024;-70
2021/06/21 10:55:20;;;;;;;7.07;6.38;;;;;;;29.14;66.94;99819.34;6191706;22;20020;-70
2021/06/21 10:57:47;;;;;;;6.97;6.28;;;;;;;29.11;66.72;99817.03;6218880;23;20015;-70
2021/06/21 11:00:14;;;;;;;7.30;6.68;;;;;;;28.24;69.71;99814.13;6219964;22;20023;-70
2021/06/21 11:02:40;;;;;;;7.60;6.90;;;;;;;28.09;70.34;99813.09;6192230;22;20336;-71
2021/06/21 11:05:06;;;;;;;7.05;6.45;;;;;;;28.71;65.47;99819.63;6192372;22;20028;-71
2021/06/21 11:07:32;;;;;;;5.90;5.40;;;;;;;28.07;65.61;99809.81;6218311;22;20036;-71
2021/06/21 11:09:58;;;;;;;6.25;5.65;;;;;;;28.21;67.16;99811.81;6218608;22;20020;-71
2021/06/21 11:12:30;;;;;;;5.95;5.47;;;;;;;27.95;68.34;99816.31;6191781;22;20021;-71
2021/06/21 11:15:11;;;;;;;5.43;4.93;;;;;;;28.16;63.72;99809.69;6191866;22;20229;-71
2021/06/21 11:17:45;;;;;;;5.05;4.60;;;;;;;27.25;63.67;99796.44;6192099;22;20019;-71
2021/06/21 11:20:29;;;;;;;4.90;4.45;;;;;;;28.05;64.19;99804.75;6218783;23;20096;-71
2021/06/21 11:22:59;;;;;;;5.25;4.85;;;;;;;28.38;64.11;99792.59;6191895;23;20016;-71
2021/06/21 11:25:32;;;;;;;6.22;5.63;;;;;;;28.72;65.20;99795.09;6218643;22;20016;-71
2021/06/21 11:27:59;;;;;;;6.95;5.00;;;;;;;28.64;61.58;99793.31;6218681;22;20013;-71
2021/06/21 11:30:35;;;;;;;5.53;5.03;;;;;;;29.17;61.63;99792.81;6191082;22;20032;-71
2021/06/21 11:33:12;;;;;;;5.68;4.60;;;;;;;29.50;60.74;99789.13;6218429;22;20039;-71
2021/06/21 11:35:55;;;;;;;5.18;4.78;;;;;;;29.14;59.09;99789.72;6218769;22;20019;-71
2021/06/21 11:38:28;;;;;;;4.70;4.30;;;;;;;29.50;58.84;99791.75;6218370;22;20085;-71
2021/06/21 11:41:18;;;;;;;5.13;4.57;;;;;;;28.44;60.51;99786.72;6218560;22;20009;-71
2021/06/21 11:43:51;;;;;;;5.07;4.55;;;;;;;28.63;61.63;99781.19;6218569;22;20258;-71
2021/06/21 11:46:38;;;;;;;5.03;4.40;;;;;;;29.15;61.62;99776.44;6218586;23;20101;-71
2021/06/21 11:49:07;;;;;;;4.90;4.40;;;;;;;28.33;61.13;99771.31;6218591;22;20081;-71
2021/06/21 11:51:32;;;;;;;6.13;4.70;;;;;;;29.33;59.98;99768.38;6218515;22;20013;-71
2021/06/21 11:53:59;;;;;;;5.53;5.03;;;;;;;28.99;60.61;99776.44;6191596;22;20263;-71
2021/06/21 11:56:26;;;;;;;5.43;5.00;;;;;;;29.91;60.20;99772.28;6218284;22;20379;-72
2021/06/21 11:58:53;;;;;;;5.38;4.90;;;;;;;29.53;63.13;99767.84;6218754;22;20008;-71